sensor_id;sensor_type;location;lat;lon;timestamp;P1;durP1;ratioP1;P2;durP2;ratioP2
8550;SDS011;4313;42.000;21.380;2023-07-02T00:02:19;17.60;;;11.90;;
8550;SDS011;4313;42.000;21.380;2023-07-02T00:04:46;17.05;;;12.80;;
8550;SDS011;4313;42.000;21.380;2023-07-02T00:07:13;17.92;;;13.13;;
8550;SDS011;4313;42.000;21.380;2023-07-02T00:09:40;15.98;;;12.25;;
8550;SDS011;4313;42.000;21.380;2023-07-02T00:12:08;18.38;;;12.05;;
8550;SDS011;4313;42.000;21.380;2023-07-02T00:14:35;15.73;;;12.18;;
8550;SDS011;4313;42.000;21.380;2023-07-02T00:17:02;15.20;;;11.50;;
8550;SDS011;4313;42.000;21.380;2023-07-02T00:19:31;17.75;;;12.35;;
8550;SDS011;4313;42.000;21.380;2023-07-02T00:21:59;16.27;;;11.55;;
8550;SDS011;4313;42.000;21.380;2023-07-02T00:24:26;16.88;;;13.25;;
8550;SDS011;4313;42.000;21.380;2023-07-02T00:26:55;17.25;;;12.40;;
8550;SDS011;4313;42.000;21.380;2023-07-02T00:29:24;19.17;;;12.57;;
8550;SDS011;4313;42.000;21.380;2023-07-02T00:31:51;17.58;;;12.68;;
8550;SDS011;4313;42.000;21.380;2023-07-02T00:34:18;16.20;;;12.05;;
8550;SDS011;4313;42.000;21.380;2023-07-02T00:36:47;15.75;;;12.75;;
8550;SDS011;4313;42.000;21.380;2023-07-02T00:39:16;17.65;;;12.98;;
8550;SDS011;4313;42.000;21.380;2023-07-02T00:41:43;19.13;;;13.18;;
8550;SDS011;4313;42.000;21.380;2023-07-02T00:44:12;15.77;;;13.63;;
8550;SDS011;4313;42.000;21.380;2023-07-02T00:46:40;19.67;;;12.70;;
8550;SDS011;4313;42.000;21.380;2023-07-02T00:49:07;14.45;;;12.20;;
8550;SDS011;4313;42.000;21.380;2023-07-02T00:51:35;20.73;;;12.00;;
8550;SDS011;4313;42.000;21.380;2023-07-02T00:54:04;15.82;;;12.68;;
8550;SDS011;4313;42.000;21.380;2023-07-02T00:56:32;15.75;;;12.75;;
8550;SDS011;4313;42.000;21.380;2023-07-02T00:58:59;16.92;;;12.52;;
8550;SDS011;4313;42.000;21.380;2023-07-02T01:01:27;14.98;;;12.73;;
8550;SDS011;4313;42.000;21.380;2023-07-02T01:03:56;13.20;;;11.55;;
8550;SDS011;4313;42.000;21.380;2023-07-02T01:06:26;17.92;;;12.73;;
8550;SDS011;4313;42.000;21.380;2023-07-02T01:08:56;17.35;;;12.30;;
8550;SDS011;4313;42.000;21.380;2023-07-02T01:11:27;14.18;;;10.80;;
8550;SDS011;4313;42.000;21.380;2023-07-02T01:13:57;17.20;;;11.30;;
8550;SDS011;4313;42.000;21.380;2023-07-02T01:16:27;15.60;;;11.88;;
8550;SDS011;4313;42.000;21.380;2023-07-02T01:18:59;15.98;;;11.63;;
8550;SDS011;4313;42.000;21.380;2023-07-02T01:21:32;12.77;;;10.27;;
8550;SDS011;4313;42.000;21.380;2023-07-02T01:24:00;13.43;;;9.90;;
8550;SDS011;4313;42.000;21.380;2023-07-02T01:26:29;15.27;;;11.30;;
8550;SDS011;4313;42.000;21.380;2023-07-02T01:29:01;14.45;;;8.85;;
8550;SDS011;4313;42.000;21.380;2023-07-02T01:31:41;13.98;;;9.40;;
8550;SDS011;4313;42.000;21.380;2023-07-02T01:34:08;10.93;;;8.55;;
8550;SDS011;4313;42.000;21.380;2023-07-02T01:36:37;12.20;;;9.10;;
8550;SDS011;4313;42.000;21.380;2023-07-02T01:39:05;12.60;;;10.05;;
8550;SDS011;4313;42.000;21.380;2023-07-02T01:41:36;16.90;;;11.20;;
8550;SDS011;4313;42.000;21.380;2023-07-02T01:44:04;14.90;;;11.43;;
8550;SDS011;4313;42.000;21.380;2023-07-02T01:46:31;18.70;;;11.43;;
8550;SDS011;4313;42.000;21.380;2023-07-02T01:48:58;14.93;;;11.40;;
8550;SDS011;4313;42.000;21.380;2023-07-02T01:51:27;15.13;;;12.13;;
8550;SDS011;4313;42.000;21.380;2023-07-02T01:53:56;17.67;;;13.32;;
8550;SDS011;4313;42.000;21.380;2023-07-02T01:56:23;19.30;;;13.38;;
8550;SDS011;4313;42.000;21.380;2023-07-02T01:58:50;15.75;;;11.75;;
8550;SDS011;4313;42.000;21.380;2023-07-02T02:01:17;19.20;;;13.50;;
8550;SDS011;4313;42.000;21.380;2023-07-02T02:03:44;17.30;;;13.23;;
8550;SDS011;4313;42.000;21.380;2023-07-02T02:06:11;17.00;;;12.70;;
8550;SDS011;4313;42.000;21.380;2023-07-02T02:08:39;15.02;;;12.40;;
8550;SDS011;4313;42.000;21.380;2023-07-02T02:11:07;14.75;;;11.88;;
8550;SDS011;4313;42.000;21.380;2023-07-02T02:13:34;13.70;;;11.02;;
8550;SDS011;4313;42.000;21.380;2023-07-02T02:16:01;14.77;;;12.02;;
8550;SDS011;4313;42.000;21.380;2023-07-02T02:18:29;17.02;;;12.20;;
8550;SDS011;4313;42.000;21.380;2023-07-02T02:20:56;17.25;;;12.60;;
8550;SDS011;4313;42.000;21.380;2023-07-02T02:23:24;16.83;;;12.13;;
8550;SDS011;4313;42.000;21.380;2023-07-02T02:25:51;17.33;;;13.02;;
8550;SDS011;4313;42.000;21.380;2023-07-02T02:28:20;15.10;;;13.10;;
8550;SDS011;4313;42.000;21.380;2023-07-02T02:30:47;18.00;;;12.82;;
8550;SDS011;4313;42.000;21.380;2023-07-02T02:33:14;16.02;;;12.63;;
8550;SDS011;4313;42.000;21.380;2023-07-02T02:35:43;15.05;;;11.70;;
8550;SDS011;4313;42.000;21.380;2023-07-02T02:38:13;15.25;;;11.90;;
8550;SDS011;4313;42.000;21.380;2023-07-02T02:40:41;14.52;;;11.95;;
8550;SDS011;4313;42.000;21.380;2023-07-02T02:43:09;16.02;;;11.60;;
8550;SDS011;4313;42.000;21.380;2023-07-02T02:45:38;15.00;;;11.27;;
8550;SDS011;4313;42.000;21.380;2023-07-02T02:48:07;13.38;;;10.18;;
8550;SDS011;4313;42.000;21.380;2023-07-02T02:50:34;8.63;;;7.65;;
8550;SDS011;4313;42.000;21.380;2023-07-02T02:53:02;10.50;;;7.63;;
8550;SDS011;4313;42.000;21.380;2023-07-02T02:55:29;12.70;;;7.38;;
8550;SDS011;4313;42.000;21.380;2023-07-02T02:57:56;9.43;;;7.10;;
8550;SDS011;4313;42.000;21.380;2023-07-02T03:00:23;9.43;;;6.53;;
8550;SDS011;4313;42.000;21.380;2023-07-02T03:02:52;9.18;;;6.57;;
8550;SDS011;4313;42.000;21.380;2023-07-02T03:05:19;8.82;;;6.80;;
8550;SDS011;4313;42.000;21.380;2023-07-02T03:07:46;12.20;;;7.60;;
8550;SDS011;4313;42.000;21.380;2023-07-02T03:10:14;8.50;;;6.93;;
8550;SDS011;4313;42.000;21.380;2023-07-02T03:12:43;9.32;;;6.97;;
8550;SDS011;4313;42.000;21.380;2023-07-02T03:15:10;10.48;;;7.25;;
8550;SDS011;4313;42.000;21.380;2023-07-02T03:17:37;9.80;;;6.85;;
8550;SDS011;4313;42.000;21.380;2023-07-02T03:20:08;11.43;;;7.80;;
8550;SDS011;4313;42.000;21.380;2023-07-02T03:22:36;9.70;;;7.43;;
8550;SDS011;4313;42.000;21.380;2023-07-02T03:25:03;9.43;;;7.50;;
8550;SDS011;4313;42.000;21.380;2023-07-02T03:27:30;9.65;;;7.32;;
8550;SDS011;4313;42.000;21.380;2023-07-02T03:29:58;10.43;;;7.53;;
8550;SDS011;4313;42.000;21.380;2023-07-02T03:32:25;14.07;;;7.70;;
8550;SDS011;4313;42.000;21.380;2023-07-02T03:34:52;10.15;;;7.90;;
8550;SDS011;4313;42.000;21.380;2023-07-02T03:37:20;11.80;;;8.65;;
8550;SDS011;4313;42.000;21.380;2023-07-02T03:39:50;10.15;;;8.40;;
8550;SDS011;4313;42.000;21.380;2023-07-02T03:42:17;10.63;;;8.85;;
8550;SDS011;4313;42.000;21.380;2023-07-02T03:44:44;13.80;;;9.23;;
8550;SDS011;4313;42.000;21.380;2023-07-02T03:47:11;10.88;;;9.48;;
8550;SDS011;4313;42.000;21.380;2023-07-02T03:49:41;12.65;;;9.48;;
8550;SDS011;4313;42.000;21.380;2023-07-02T03:52:10;12.32;;;10.57;;
8550;SDS011;4313;42.000;21.380;2023-07-02T03:54:39;13.77;;;9.43;;
8550;SDS011;4313;42.000;21.380;2023-07-02T03:57:06;12.25;;;9.80;;
8550;SDS011;4313;42.000;21.380;2023-07-02T03:59:33;12.98;;;10.65;;
8550;SDS011;4313;42.000;21.380;2023-07-02T04:02:01;12.13;;;10.70;;
8550;SDS011;4313;42.000;21.380;2023-07-02T04:04:28;16.67;;;11.93;;
8550;SDS011;4313;42.000;21.380;2023-07-02T04:06:55;15.75;;;12.45;;
8550;SDS011;4313;42.000;21.380;2023-07-02T04:09:22;15.35;;;12.52;;
8550;SDS011;4313;42.000;21.380;2023-07-02T04:11:50;16.40;;;12.93;;
8550;SDS011;4313;42.000;21.380;2023-07-02T04:14:17;22.23;;;13.20;;
8550;SDS011;4313;42.000;21.380;2023-07-02T04:16:45;16.90;;;14.75;;
8550;SDS011;4313;42.000;21.380;2023-07-02T04:19:12;17.70;;;13.57;;
8550;SDS011;4313;42.000;21.380;2023-07-02T04:21:39;16.67;;;13.45;;
8550;SDS011;4313;42.000;21.380;2023-07-02T04:24:07;13.80;;;11.57;;
8550;SDS011;4313;42.000;21.380;2023-07-02T04:26:34;15.38;;;10.65;;
8550;SDS011;4313;42.000;21.380;2023-07-02T04:29:04;12.70;;;10.40;;
8550;SDS011;4313;42.000;21.380;2023-07-02T04:31:31;13.32;;;10.40;;
8550;SDS011;4313;42.000;21.380;2023-07-02T04:33:58;12.30;;;10.27;;
8550;SDS011;4313;42.000;21.380;2023-07-02T04:36:26;11.10;;;9.48;;
8550;SDS011;4313;42.000;21.380;2023-07-02T04:38:53;15.35;;;10.63;;
8550;SDS011;4313;42.000;21.380;2023-07-02T04:41:20;13.73;;;10.82;;
8550;SDS011;4313;42.000;21.380;2023-07-02T04:43:47;13.80;;;10.15;;
8550;SDS011;4313;42.000;21.380;2023-07-02T04:46:16;12.25;;;10.02;;
8550;SDS011;4313;42.000;21.380;2023-07-02T04:48:43;15.48;;;10.82;;
8550;SDS011;4313;42.000;21.380;2023-07-02T04:51:10;11.57;;;10.30;;
8550;SDS011;4313;42.000;21.380;2023-07-02T04:53:37;13.75;;;10.20;;
8550;SDS011;4313;42.000;21.380;2023-07-02T04:56:04;11.60;;;10.18;;
8550;SDS011;4313;42.000;21.380;2023-07-02T04:58:32;13.45;;;10.93;;
8550;SDS011;4313;42.000;21.380;2023-07-02T05:00:59;15.40;;;11.35;;
8550;SDS011;4313;42.000;21.380;2023-07-02T05:03:29;12.65;;;10.32;;
8550;SDS011;4313;42.000;21.380;2023-07-02T05:05:56;12.60;;;11.25;;
8550;SDS011;4313;42.000;21.380;2023-07-02T05:08:24;12.73;;;10.65;;
8550;SDS011;4313;42.000;21.380;2023-07-02T05:10:51;13.52;;;11.50;;
8550;SDS011;4313;42.000;21.380;2023-07-02T05:13:18;13.52;;;10.32;;
8550;SDS011;4313;42.000;21.380;2023-07-02T05:15:45;10.88;;;9.55;;
8550;SDS011;4313;42.000;21.380;2023-07-02T05:18:12;15.40;;;10.60;;
8550;SDS011;4313;42.000;21.380;2023-07-02T05:20:41;12.63;;;9.85;;
8550;SDS011;4313;42.000;21.380;2023-07-02T05:23:08;13.45;;;10.95;;
8550;SDS011;4313;42.000;21.380;2023-07-02T05:25:35;14.10;;;10.93;;
8550;SDS011;4313;42.000;21.380;2023-07-02T05:28:04;13.50;;;10.65;;
8550;SDS011;4313;42.000;21.380;2023-07-02T05:30:31;13.02;;;10.57;;
8550;SDS011;4313;42.000;21.380;2023-07-02T05:32:58;13.20;;;10.05;;
8550;SDS011;4313;42.000;21.380;2023-07-02T05:35:25;12.43;;;10.45;;
8550;SDS011;4313;42.000;21.380;2023-07-02T05:37:53;11.75;;;9.57;;
8550;SDS011;4313;42.000;21.380;2023-07-02T05:40:21;15.35;;;10.00;;
8550;SDS011;4313;42.000;21.380;2023-07-02T05:42:48;13.15;;;9.57;;
8550;SDS011;4313;42.000;21.380;2023-07-02T05:45:15;10.27;;;8.80;;
8550;SDS011;4313;42.000;21.380;2023-07-02T05:47:42;10.25;;;8.60;;
8550;SDS011;4313;42.000;21.380;2023-07-02T05:50:12;10.85;;;8.32;;
8550;SDS011;4313;42.000;21.380;2023-07-02T05:52:39;13.10;;;9.23;;
8550;SDS011;4313;42.000;21.380;2023-07-02T05:55:08;9.93;;;8.65;;
8550;SDS011;4313;42.000;21.380;2023-07-02T05:57:36;10.07;;;8.20;;
8550;SDS011;4313;42.000;21.380;2023-07-02T06:00:04;9.82;;;8.07;;
8550;SDS011;4313;42.000;21.380;2023-07-02T06:02:37;8.90;;;8.00;;
8550;SDS011;4313;42.000;21.380;2023-07-02T06:05:05;10.15;;;8.25;;
8550;SDS011;4313;42.000;21.380;2023-07-02T06:07:35;11.35;;;8.20;;
8550;SDS011;4313;42.000;21.380;2023-07-02T06:10:02;10.00;;;8.10;;
8550;SDS011;4313;42.000;21.380;2023-07-02T06:12:31;9.73;;;8.43;;
8550;SDS011;4313;42.000;21.380;2023-07-02T06:14:58;11.98;;;7.97;;
8550;SDS011;4313;42.000;21.380;2023-07-02T06:17:25;12.30;;;8.15;;
8550;SDS011;4313;42.000;21.380;2023-07-02T06:19:52;9.70;;;7.80;;
8550;SDS011;4313;42.000;21.380;2023-07-02T06:22:20;9.27;;;7.95;;
8550;SDS011;4313;42.000;21.380;2023-07-02T06:24:47;9.68;;;7.97;;
8550;SDS011;4313;42.000;21.380;2023-07-02T06:27:14;10.52;;;8.93;;
8550;SDS011;4313;42.000;21.380;2023-07-02T06:29:43;11.00;;;8.77;;
8550;SDS011;4313;42.000;21.380;2023-07-02T06:32:10;9.23;;;8.07;;
8550;SDS011;4313;42.000;21.380;2023-07-02T06:34:37;11.63;;;8.63;;
8550;SDS011;4313;42.000;21.380;2023-07-02T06:37:06;10.93;;;8.50;;
8550;SDS011;4313;42.000;21.380;2023-07-02T06:39:33;12.82;;;8.65;;
8550;SDS011;4313;42.000;21.380;2023-07-02T06:42:00;10.50;;;8.77;;
8550;SDS011;4313;42.000;21.380;2023-07-02T06:44:30;11.63;;;8.52;;
8550;SDS011;4313;42.000;21.380;2023-07-02T06:46:58;10.20;;;7.60;;
8550;SDS011;4313;42.000;21.380;2023-07-02T06:49:26;9.50;;;7.00;;
8550;SDS011;4313;42.000;21.380;2023-07-02T06:51:53;26.77;;;11.65;;
8550;SDS011;4313;42.000;21.380;2023-07-02T06:54:20;23.95;;;10.48;;
8550;SDS011;4313;42.000;21.380;2023-07-02T06:56:47;12.57;;;9.13;;
8550;SDS011;4313;42.000;21.380;2023-07-02T06:59:18;11.02;;;8.82;;
8550;SDS011;4313;42.000;21.380;2023-07-02T07:01:46;11.98;;;9.52;;
8550;SDS011;4313;42.000;21.380;2023-07-02T07:04:14;11.80;;;9.20;;
8550;SDS011;4313;42.000;21.380;2023-07-02T07:06:42;11.55;;;9.27;;
8550;SDS011;4313;42.000;21.380;2023-07-02T07:09:09;11.73;;;8.88;;
8550;SDS011;4313;42.000;21.380;2023-07-02T07:11:37;11.18;;;9.15;;
8550;SDS011;4313;42.000;21.380;2023-07-02T07:14:04;9.43;;;8.20;;
8550;SDS011;4313;42.000;21.380;2023-07-02T07:16:31;10.38;;;8.63;;
8550;SDS011;4313;42.000;21.380;2023-07-02T07:18:58;11.25;;;8.82;;
8550;SDS011;4313;42.000;21.380;2023-07-02T07:21:26;10.35;;;8.15;;
8550;SDS011;4313;42.000;21.380;2023-07-02T07:23:54;8.90;;;7.63;;
8550;SDS011;4313;42.000;21.380;2023-07-02T07:26:21;10.32;;;8.20;;
8550;SDS011;4313;42.000;21.380;2023-07-02T07:28:49;8.63;;;6.72;;
8550;SDS011;4313;42.000;21.380;2023-07-02T07:31:16;9.85;;;6.95;;
8550;SDS011;4313;42.000;21.380;2023-07-02T07:33:43;10.68;;;7.55;;
8550;SDS011;4313;42.000;21.380;2023-07-02T07:36:11;9.57;;;7.25;;
8550;SDS011;4313;42.000;21.380;2023-07-02T07:38:39;10.05;;;6.75;;
8550;SDS011;4313;42.000;21.380;2023-07-02T07:41:06;7.60;;;6.32;;
8550;SDS011;4313;42.000;21.380;2023-07-02T07:43:34;8.88;;;6.55;;
8550;SDS011;4313;42.000;21.380;2023-07-02T07:46:03;8.02;;;6.47;;
8550;SDS011;4313;42.000;21.380;2023-07-02T07:48:30;7.97;;;6.55;;
8550;SDS011;4313;42.000;21.380;2023-07-02T07:50:58;9.00;;;6.93;;
8550;SDS011;4313;42.000;21.380;2023-07-02T07:53:25;9.90;;;6.65;;
8550;SDS011;4313;42.000;21.380;2023-07-02T07:55:54;9.70;;;6.65;;
8550;SDS011;4313;42.000;21.380;2023-07-02T07:58:21;14.02;;;7.82;;
8550;SDS011;4313;42.000;21.380;2023-07-02T08:00:49;9.35;;;6.40;;
8550;SDS011;4313;42.000;21.380;2023-07-02T08:03:16;10.40;;;6.53;;
8550;SDS011;4313;42.000;21.380;2023-07-02T08:05:43;10.18;;;6.85;;
8550;SDS011;4313;42.000;21.380;2023-07-02T08:08:11;13.95;;;7.45;;
8550;SDS011;4313;42.000;21.380;2023-07-02T08:10:38;10.48;;;7.03;;
8550;SDS011;4313;42.000;21.380;2023-07-02T08:13:07;9.40;;;6.90;;
8550;SDS011;4313;42.000;21.380;2023-07-02T08:15:34;11.13;;;7.35;;
8550;SDS011;4313;42.000;21.380;2023-07-02T08:18:01;11.00;;;7.05;;
8550;SDS011;4313;42.000;21.380;2023-07-02T08:20:29;8.73;;;6.70;;
8550;SDS011;4313;42.000;21.380;2023-07-02T08:22:56;9.20;;;6.85;;
8550;SDS011;4313;42.000;21.380;2023-07-02T08:25:23;8.65;;;6.85;;
8550;SDS011;4313;42.000;21.380;2023-07-02T08:27:52;7.93;;;6.65;;
8550;SDS011;4313;42.000;21.380;2023-07-02T08:30:21;9.85;;;6.53;;
8550;SDS011;4313;42.000;21.380;2023-07-02T08:32:48;9.40;;;6.80;;
8550;SDS011;4313;42.000;21.380;2023-07-02T08:35:17;9.38;;;6.65;;
8550;SDS011;4313;42.000;21.380;2023-07-02T08:37:45;9.70;;;6.50;;
8550;SDS011;4313;42.000;21.380;2023-07-02T08:40:17;8.68;;;6.68;;
8550;SDS011;4313;42.000;21.380;2023-07-02T08:42:44;9.45;;;5.93;;
8550;SDS011;4313;42.000;21.380;2023-07-02T08:45:13;8.20;;;6.05;;
8550;SDS011;4313;42.000;21.380;2023-07-02T08:47:42;7.72;;;6.20;;
8550;SDS011;4313;42.000;21.380;2023-07-02T08:50:10;7.90;;;6.35;;
8550;SDS011;4313;42.000;21.380;2023-07-02T08:52:40;8.38;;;6.75;;
8550;SDS011;4313;42.000;21.380;2023-07-02T08:55:10;8.85;;;5.38;;
8550;SDS011;4313;42.000;21.380;2023-07-02T08:57:37;7.07;;;5.90;;
8550;SDS011;4313;42.000;21.380;2023-07-02T09:00:06;8.88;;;6.07;;
8550;SDS011;4313;42.000;21.380;2023-07-02T09:02:35;7.68;;;5.90;;
8550;SDS011;4313;42.000;21.380;2023-07-02T09:05:04;8.40;;;6.38;;
8550;SDS011;4313;42.000;21.380;2023-07-02T09:07:32;7.93;;;5.75;;
8550;SDS011;4313;42.000;21.380;2023-07-02T09:10:10;8.82;;;6.22;;
8550;SDS011;4313;42.000;21.380;2023-07-02T09:12:37;8.98;;;6.22;;
8550;SDS011;4313;42.000;21.380;2023-07-02T09:15:05;8.35;;;5.38;;
8550;SDS011;4313;42.000;21.380;2023-07-02T09:17:34;6.97;;;6.00;;
8550;SDS011;4313;42.000;21.380;2023-07-02T09:20:04;6.60;;;5.78;;
8550;SDS011;4313;42.000;21.380;2023-07-02T09:22:33;8.07;;;5.80;;
8550;SDS011;4313;42.000;21.380;2023-07-02T09:25:01;7.88;;;5.65;;
8550;SDS011;4313;42.000;21.380;2023-07-02T09:27:35;9.55;;;5.63;;
8550;SDS011;4313;42.000;21.380;2023-07-02T09:30:07;9.75;;;5.47;;
8550;SDS011;4313;42.000;21.380;2023-07-02T09:32:35;7.45;;;5.82;;
8550;SDS011;4313;42.000;21.380;2023-07-02T09:35:04;8.18;;;5.30;;
8550;SDS011;4313;42.000;21.380;2023-07-02T09:37:33;7.57;;;6.20;;
8550;SDS011;4313;42.000;21.380;2023-07-02T09:40:00;6.05;;;5.45;;
8550;SDS011;4313;42.000;21.380;2023-07-02T09:42:30;6.82;;;5.85;;
8550;SDS011;4313;42.000;21.380;2023-07-02T09:44:58;7.05;;;5.20;;
8550;SDS011;4313;42.000;21.380;2023-07-02T09:47:25;8.07;;;5.20;;
8550;SDS011;4313;42.000;21.380;2023-07-02T09:49:54;7.50;;;4.65;;
8550;SDS011;4313;42.000;21.380;2023-07-02T09:52:22;5.85;;;5.07;;
8550;SDS011;4313;42.000;21.380;2023-07-02T09:54:49;7.18;;;5.38;;
8550;SDS011;4313;42.000;21.380;2023-07-02T09:57:16;5.68;;;4.85;;
8550;SDS011;4313;42.000;21.380;2023-07-02T09:59:44;7.72;;;5.60;;
8550;SDS011;4313;42.000;21.380;2023-07-02T10:02:11;5.90;;;5.00;;
8550;SDS011;4313;42.000;21.380;2023-07-02T10:04:39;6.35;;;5.00;;
8550;SDS011;4313;42.000;21.380;2023-07-02T10:07:07;6.05;;;5.00;;
8550;SDS011;4313;42.000;21.380;2023-07-02T10:09:36;7.40;;;5.20;;
8550;SDS011;4313;42.000;21.380;2023-07-02T10:12:19;7.80;;;5.10;;
8550;SDS011;4313;42.000;21.380;2023-07-02T10:14:48;6.57;;;5.00;;
8550;SDS011;4313;42.000;21.380;2023-07-02T10:17:25;7.55;;;6.72;;
8550;SDS011;4313;42.000;21.380;2023-07-02T10:19:54;5.72;;;5.22;;
8550;SDS011;4313;42.000;21.380;2023-07-02T10:22:22;7.40;;;5.28;;
8550;SDS011;4313;42.000;21.380;2023-07-02T10:24:54;9.00;;;6.10;;
8550;SDS011;4313;42.000;21.380;2023-07-02T10:27:34;6.20;;;4.78;;
8550;SDS011;4313;42.000;21.380;2023-07-02T10:30:03;6.45;;;4.55;;
8550;SDS011;4313;42.000;21.380;2023-07-02T10:32:31;7.03;;;5.43;;
8550;SDS011;4313;42.000;21.380;2023-07-02T10:35:01;8.43;;;5.15;;
8550;SDS011;4313;42.000;21.380;2023-07-02T10:37:35;6.10;;;5.45;;
8550;SDS011;4313;42.000;21.380;2023-07-02T10:40:05;5.60;;;4.97;;
8550;SDS011;4313;42.000;21.380;2023-07-02T10:42:44;6.28;;;4.85;;
8550;SDS011;4313;42.000;21.380;2023-07-02T10:45:11;8.20;;;5.28;;
8550;SDS011;4313;42.000;21.380;2023-07-02T10:47:39;5.95;;;4.90;;
8550;SDS011;4313;42.000;21.380;2023-07-02T10:50:13;7.45;;;5.20;;
8550;SDS011;4313;42.000;21.380;2023-07-02T10:52:41;6.13;;;4.45;;
8550;SDS011;4313;42.000;21.380;2023-07-02T10:55:10;5.28;;;4.78;;
8550;SDS011;4313;42.000;21.380;2023-07-02T10:57:40;6.32;;;5.18;;
8550;SDS011;4313;42.000;21.380;2023-07-02T11:00:08;7.18;;;4.82;;
8550;SDS011;4313;42.000;21.380;2023-07-02T11:02:36;6.20;;;4.93;;
8550;SDS011;4313;42.000;21.380;2023-07-02T11:05:03;6.18;;;4.55;;
8550;SDS011;4313;42.000;21.380;2023-07-02T11:07:31;5.93;;;5.32;;
8550;SDS011;4313;42.000;21.380;2023-07-02T11:09:58;5.95;;;4.72;;
8550;SDS011;4313;42.000;21.380;2023-07-02T11:12:30;7.13;;;5.03;;
8550;SDS011;4313;42.000;21.380;2023-07-02T11:15:06;6.25;;;4.97;;
8550;SDS011;4313;42.000;21.380;2023-07-02T11:17:33;5.35;;;4.70;;
8550;SDS011;4313;42.000;21.380;2023-07-02T11:20:02;7.85;;;7.15;;
8550;SDS011;4313;42.000;21.380;2023-07-02T11:22:30;8.50;;;5.35;;
8550;SDS011;4313;42.000;21.380;2023-07-02T11:25:07;6.85;;;4.68;;
8550;SDS011;4313;42.000;21.380;2023-07-02T11:27:36;6.00;;;5.30;;
8550;SDS011;4313;42.000;21.380;2023-07-02T11:30:04;9.27;;;7.97;;
8550;SDS011;4313;42.000;21.380;2023-07-02T11:32:34;6.20;;;5.13;;
8550;SDS011;4313;42.000;21.380;2023-07-02T11:35:12;5.72;;;5.00;;
8550;SDS011;4313;42.000;21.380;2023-07-02T11:37:41;6.63;;;5.22;;
8550;SDS011;4313;42.000;21.380;2023-07-02T11:40:10;6.85;;;5.28;;
8550;SDS011;4313;42.000;21.380;2023-07-02T11:42:40;5.28;;;4.78;;
8550;SDS011;4313;42.000;21.380;2023-07-02T11:45:09;6.07;;;5.13;;
8550;SDS011;4313;42.000;21.380;2023-07-02T11:47:37;5.93;;;4.95;;
8550;SDS011;4313;42.000;21.380;2023-07-02T11:50:26;6.72;;;5.28;;
8550;SDS011;4313;42.000;21.380;2023-07-02T11:52:55;5.80;;;5.20;;
8550;SDS011;4313;42.000;21.380;2023-07-02T11:55:22;7.43;;;5.10;;
8550;SDS011;4313;42.000;21.380;2023-07-02T11:57:52;7.55;;;5.00;;
8550;SDS011;4313;42.000;21.380;2023-07-02T12:00:21;6.32;;;5.25;;
8550;SDS011;4313;42.000;21.380;2023-07-02T12:02:48;20.75;;;18.92;;
8550;SDS011;4313;42.000;21.380;2023-07-02T12:05:15;6.97;;;6.28;;
8550;SDS011;4313;42.000;21.380;2023-07-02T12:07:45;6.70;;;5.70;;
8550;SDS011;4313;42.000;21.380;2023-07-02T12:10:12;6.15;;;5.55;;
8550;SDS011;4313;42.000;21.380;2023-07-02T12:12:39;7.07;;;5.78;;
8550;SDS011;4313;42.000;21.380;2023-07-02T12:15:08;6.57;;;5.60;;
8550;SDS011;4313;42.000;21.380;2023-07-02T12:17:36;8.38;;;5.88;;
8550;SDS011;4313;42.000;21.380;2023-07-02T12:20:06;6.53;;;5.82;;
8550;SDS011;4313;42.000;21.380;2023-07-02T12:22:34;5.90;;;5.05;;
8550;SDS011;4313;42.000;21.380;2023-07-02T12:25:01;5.93;;;5.35;;
8550;SDS011;4313;42.000;21.380;2023-07-02T12:27:29;6.78;;;6.00;;
8550;SDS011;4313;42.000;21.380;2023-07-02T12:29:56;7.10;;;5.50;;
8550;SDS011;4313;42.000;21.380;2023-07-02T12:32:29;6.32;;;5.63;;
8550;SDS011;4313;42.000;21.380;2023-07-02T12:34:56;7.57;;;6.00;;
8550;SDS011;4313;42.000;21.380;2023-07-02T12:37:23;9.05;;;6.20;;
8550;SDS011;4313;42.000;21.380;2023-07-02T12:39:51;7.65;;;5.60;;
8550;SDS011;4313;42.000;21.380;2023-07-02T12:42:19;7.53;;;6.20;;
8550;SDS011;4313;42.000;21.380;2023-07-02T12:44:46;7.80;;;6.20;;
8550;SDS011;4313;42.000;21.380;2023-07-02T12:47:13;7.13;;;5.85;;
8550;SDS011;4313;42.000;21.380;2023-07-02T12:49:42;6.55;;;5.50;;
8550;SDS011;4313;42.000;21.380;2023-07-02T12:52:09;7.82;;;6.07;;
8550;SDS011;4313;42.000;21.380;2023-07-02T12:54:36;7.20;;;5.47;;
8550;SDS011;4313;42.000;21.380;2023-07-02T12:57:03;6.93;;;5.82;;
8550;SDS011;4313;42.000;21.380;2023-07-02T12:59:31;6.15;;;5.55;;
8550;SDS011;4313;42.000;21.380;2023-07-02T13:01:58;6.20;;;5.60;;
8550;SDS011;4313;42.000;21.380;2023-07-02T13:04:25;7.32;;;6.00;;
8550;SDS011;4313;42.000;21.380;2023-07-02T13:06:53;7.53;;;5.80;;
8550;SDS011;4313;42.000;21.380;2023-07-02T13:09:20;9.02;;;6.53;;
8550;SDS011;4313;42.000;21.380;2023-07-02T13:11:47;10.43;;;6.20;;
8550;SDS011;4313;42.000;21.380;2023-07-02T13:14:14;7.68;;;6.05;;
8550;SDS011;4313;42.000;21.380;2023-07-02T13:16:42;7.13;;;6.35;;
8550;SDS011;4313;42.000;21.380;2023-07-02T13:19:09;6.85;;;5.82;;
8550;SDS011;4313;42.000;21.380;2023-07-02T13:21:36;8.10;;;6.22;;
8550;SDS011;4313;42.000;21.380;2023-07-02T13:24:05;7.95;;;6.18;;
8550;SDS011;4313;42.000;21.380;2023-07-02T13:26:32;8.98;;;6.45;;
8550;SDS011;4313;42.000;21.380;2023-07-02T13:28:59;7.90;;;6.10;;
8550;SDS011;4313;42.000;21.380;2023-07-02T13:31:26;8.20;;;6.13;;
8550;SDS011;4313;42.000;21.380;2023-07-02T13:33:53;8.90;;;6.20;;
8550;SDS011;4313;42.000;21.380;2023-07-02T13:36:20;6.90;;;6.20;;
8550;SDS011;4313;42.000;21.380;2023-07-02T13:38:47;8.93;;;6.95;;
8550;SDS011;4313;42.000;21.380;2023-07-02T13:41:16;12.43;;;5.90;;
8550;SDS011;4313;42.000;21.380;2023-07-02T13:43:43;8.95;;;6.38;;
8550;SDS011;4313;42.000;21.380;2023-07-02T13:46:10;8.23;;;6.63;;
8550;SDS011;4313;42.000;21.380;2023-07-02T13:48:37;7.47;;;6.40;;
8550;SDS011;4313;42.000;21.380;2023-07-02T13:51:05;25.60;;;22.88;;
8550;SDS011;4313;42.000;21.380;2023-07-02T13:53:33;9.85;;;8.10;;
8550;SDS011;4313;42.000;21.380;2023-07-02T13:56:01;11.70;;;8.52;;
8550;SDS011;4313;42.000;21.380;2023-07-02T14:01:17;18.67;;;14.10;;
8550;SDS011;4313;42.000;21.380;2023-07-02T14:03:44;30.15;;;26.50;;
8550;SDS011;4313;42.000;21.380;2023-07-02T14:06:11;37.13;;;32.78;;
8550;SDS011;4313;42.000;21.380;2023-07-02T14:08:39;21.77;;;19.23;;
8550;SDS011;4313;42.000;21.380;2023-07-02T14:11:06;9.95;;;8.88;;
8550;SDS011;4313;42.000;21.380;2023-07-02T14:13:33;9.60;;;8.02;;
8550;SDS011;4313;42.000;21.380;2023-07-02T14:16:03;11.55;;;8.80;;
8550;SDS011;4313;42.000;21.380;2023-07-02T14:18:30;9.98;;;8.23;;
8550;SDS011;4313;42.000;21.380;2023-07-02T14:20:57;7.70;;;6.90;;
8550;SDS011;4313;42.000;21.380;2023-07-02T14:23:24;7.28;;;6.40;;
8550;SDS011;4313;42.000;21.380;2023-07-02T14:25:51;7.15;;;6.13;;
8550;SDS011;4313;42.000;21.380;2023-07-02T14:28:18;7.03;;;6.18;;
8550;SDS011;4313;42.000;21.380;2023-07-02T14:30:45;14.23;;;12.80;;
8550;SDS011;4313;42.000;21.380;2023-07-02T14:33:14;13.82;;;11.68;;
8550;SDS011;4313;42.000;21.380;2023-07-02T14:35:41;10.50;;;8.13;;
8550;SDS011;4313;42.000;21.380;2023-07-02T14:38:08;7.60;;;6.90;;
8550;SDS011;4313;42.000;21.380;2023-07-02T14:40:35;10.98;;;7.18;;
8550;SDS011;4313;42.000;21.380;2023-07-02T14:43:02;8.85;;;7.38;;
8550;SDS011;4313;42.000;21.380;2023-07-02T14:45:30;9.85;;;7.63;;
8550;SDS011;4313;42.000;21.380;2023-07-02T14:47:57;8.85;;;7.53;;
8550;SDS011;4313;42.000;21.380;2023-07-02T14:50:26;8.30;;;7.50;;
8550;SDS011;4313;42.000;21.380;2023-07-02T14:52:55;14.80;;;7.70;;
8550;SDS011;4313;42.000;21.380;2023-07-02T14:55:22;9.18;;;6.75;;
8550;SDS011;4313;42.000;21.380;2023-07-02T14:57:49;13.38;;;11.52;;
8550;SDS011;4313;42.000;21.380;2023-07-02T15:00:16;9.00;;;7.38;;